Time;durP1;ratioP1;P1;durP2;ratioP2;P2;SDS_P1;SDS_P2;PMS_P1;PMS_P2;Temp;Humidity;BMP_temperature;BMP_pressure;BME280_temperature;BME280_humidity;BME280_pressure;Samples;Min_cycle;Max_cycle;Signal;HPM_P1;HPM_P2
2023/06/13 00:02:07;;;;;;;2.47;2.38;;;23.90;99.90;;;24.33;42.46;101268.88;4937982;29;20098;-61
2023/06/13 00:04:38;;;;;;;1.90;1.80;;;23.90;99.90;;;24.32;42.33;101264.41;4938305;29;20134;-61
2023/06/13 00:07:09;;;;;;;2.45;2.35;;;23.90;99.90;;;24.45;42.68;101268.19;4937959;29;20048;-61
2023/06/13 00:09:37;;;;;;;2.63;2.53;;;23.90;99.90;;;23.81;42.24;101201.34;4934983;29;20063;-60
2023/06/13 00:12:09;;;;;;;1.98;1.88;;;24.00;99.90;;;24.46;42.48;101259.09;4937643;29;20052;-61
2023/06/13 00:14:37;;;;;;;30.63;4.05;;;24.00;99.90;;;24.39;41.83;101266.69;4937838;29;20469;-61
2023/06/13 00:17:07;;;;;;;3.88;3.67;;;24.00;99.90;;;24.41;41.60;101261.22;4936695;29;20075;-61
2023/06/13 00:19:36;;;;;;;3.10;2.90;;;23.90;99.90;;;24.16;41.64;101259.84;4937625;29;20087;-60
2023/06/13 00:22:09;;;;;;;2.40;2.30;;;23.80;99.90;;;24.16;41.75;101262.53;4937710;29;20162;-61
2023/06/13 00:24:38;;;;;;;2.33;2.22;;;23.70;99.90;;;23.95;42.26;101257.38;4934249;29;20047;-60
2023/06/13 00:27:07;;;;;;;1.95;1.85;;;23.60;99.90;;;24.04;42.12;101257.78;4937503;29;20490;-62
2023/06/13 00:29:35;;;;;;;2.22;2.13;;;23.60;99.90;;;24.16;41.93;101258.94;4936437;29;20107;-60
2023/06/13 00:32:05;;;;;;;2.20;2.10;;;23.70;99.90;;;24.37;41.67;101254.22;4937606;29;20047;-61
2023/06/13 00:34:33;;;;;;;2.65;2.55;;;23.80;99.90;;;23.98;41.86;101255.38;4937614;29;20107;-61
2023/06/13 00:37:03;;;;;;;3.25;3.08;;;23.60;99.90;;;24.07;42.01;101254.06;4937655;29;20494;-61
2023/06/13 00:39:33;;;;;;;2.58;2.47;;;23.60;99.90;;;23.37;41.81;101135.31;4928716;29;20102;-61
2023/06/13 00:42:02;;;;;;;2.30;2.20;;;23.60;99.90;;;24.27;41.68;101258.38;4933070;29;20078;-61
2023/06/13 00:44:31;;;;;;;2.47;2.38;;;23.70;99.90;;;24.29;41.40;101254.66;4933863;29;20441;-60
2023/06/13 00:47:00;;;;;;;2.45;2.35;;;23.80;99.90;;;24.42;41.55;101254.81;4933996;29;20466;-61
2023/06/13 00:49:30;;;;;;;1.95;1.85;;;23.90;99.90;;;24.51;40.91;101251.59;4937721;29;20099;-61
2023/06/13 00:52:04;;;;;;;2.40;2.30;;;24.10;99.90;;;24.57;40.59;101248.56;4936012;29;20058;-60
2023/06/13 00:54:36;;;;;;;2.45;2.35;;;24.10;99.90;;;24.66;40.76;101250.75;4937088;29;20043;-61
2023/06/13 00:57:07;;;;;;;2.35;2.25;;;24.20;99.90;;;24.17;40.29;101175.06;4925067;29;20052;-61
2023/06/13 00:59:35;;;;;;;;;;;24.30;99.90;;;24.67;40.10;101247.06;4933955;29;20478;-60
2023/06/13 01:02:04;;;;;;;2.83;2.63;;;24.20;99.90;;;24.48;40.02;101249.06;4937157;29;19970;-61
2023/06/13 01:04:34;;;;;;;2.22;2.13;;;24.10;99.90;;;23.86;39.50;101149.78;4935824;29;20044;-60
2023/06/13 01:07:10;;;;;;;2.30;2.20;;;24.10;99.90;;;24.49;40.07;101242.69;4936078;29;20074;-60
2023/06/13 01:09:42;;;;;;;2.28;2.17;;;24.10;99.90;;;24.36;39.85;101247.94;4924894;29;20181;-61
2023/06/13 01:12:27;;;;;;;2.53;2.42;;;24.00;99.90;;;24.36;40.03;101241.63;4935421;29;20062;-61
2023/06/13 01:15:03;;;;;;;2.33;2.22;;;23.90;99.90;;;24.18;39.66;101232.69;4935703;29;20051;-61
2023/06/13 01:17:35;;;;;;;2.20;2.10;;;23.80;99.90;;;24.13;39.91;101226.69;4936781;29;20047;-61
2023/06/13 01:20:11;;;;;;;2.08;1.98;;;23.70;99.90;;;24.11;39.74;101229.47;4933744;29;20139;-60
2023/06/13 01:22:47;;;;;;;2.17;2.08;;;23.70;99.90;;;24.16;39.81;101240.03;4936108;29;20417;-60
2023/06/13 01:25:37;;;;;;;2.08;1.98;;;23.70;99.90;;;23.98;40.26;101230.19;4936768;29;20155;-61
2023/06/13 01:28:08;;;;;;;2.40;2.30;;;23.50;99.90;;;23.64;40.57;101187.88;4935495;29;20453;-60
2023/06/13 01:30:37;;;;;;;2.28;2.17;;;23.50;99.90;;;24.00;40.16;101234.53;4936665;29;20055;-62
2023/06/13 01:33:07;;;;;;;2.63;2.53;;;23.50;99.90;;;24.03;40.31;101210.09;4944559;29;20557;-61
2023/06/13 01:35:37;;;;;;;2.10;2.00;;;23.60;99.90;;;24.24;40.21;101236.91;4936646;29;20048;-60
2023/06/13 01:38:05;;;;;;;2.10;2.00;;;23.80;99.90;;;24.17;39.75;101234.56;4943555;29;20044;-61
2023/06/13 01:40:35;;;;;;;2.30;2.20;;;23.80;99.90;;;24.12;39.29;101217.69;4935180;29;20048;-62
2023/06/13 01:43:04;;;;;;;2.28;2.17;;;23.80;99.90;;;24.23;39.69;101237.88;4936398;29;20052;-62
2023/06/13 01:45:33;;;;;;;4.75;4.10;;;23.80;99.90;;;24.18;40.42;101232.69;4936382;29;20052;-59
2023/06/13 01:48:11;;;;;;;2.20;2.10;;;23.80;99.90;;;24.30;39.78;101228.44;4927486;29;20131;-60
2023/06/13 01:50:48;;;;;;;1.85;1.80;;;23.90;99.90;;;24.37;39.97;101235.28;4924614;29;20056;-60
2023/06/13 01:53:28;;;;;;;1.80;1.80;;;23.90;99.90;;;24.33;39.62;101233.72;4927322;29;20075;-60
2023/06/13 01:56:01;;;;;;;2.10;2.00;;;23.90;99.90;;;24.33;40.20;101226.44;4939795;29;20056;-60
2023/06/13 01:58:35;;;;;;;2.05;1.95;;;23.90;99.90;;;24.44;39.94;101229.44;4927317;29;20185;-60
2023/06/13 02:01:06;;;;;;;2.28;2.17;;;24.00;99.90;;;24.45;39.51;101235.75;4934886;29;20064;-60
2023/06/13 02:03:35;;;;;;;2.00;1.90;;;24.00;99.90;;;24.38;39.40;101234.31;4935873;29;20132;-60
2023/06/13 02:06:04;;;;;;;2.00;1.90;;;24.00;99.90;;;24.19;40.01;101220.94;4935753;29;20039;-60
2023/06/13 02:08:33;;;;;;;2.55;2.45;;;23.80;99.90;;;24.25;40.04;101234.13;4944079;29;20060;-60
2023/06/13 02:11:01;;;;;;;1.90;1.80;;;23.80;99.90;;;24.25;40.71;101230.53;4934665;29;20058;-60
2023/06/13 02:13:32;;;;;;;2.47;2.38;;;23.70;99.90;;;24.14;40.76;101226.59;4934648;29;20048;-59
2023/06/13 02:16:00;;;;;;;2.45;2.35;;;23.70;99.90;;;24.02;40.57;101223.69;4935587;29;20050;-60
2023/06/13 02:18:30;;;;;;;2.40;2.30;;;23.60;99.90;;;24.15;40.95;101222.94;4935853;29;20048;-59
2023/06/13 02:21:00;;;;;;;2.47;2.38;;;23.70;99.90;;;24.15;40.70;101224.78;4935840;29;20527;-60
2023/06/13 02:23:28;;;;;;;1.80;1.80;;;23.70;99.90;;;24.16;41.19;101223.78;4935791;29;20048;-59
2023/06/13 02:25:56;;;;;;;2.25;2.15;;;23.70;99.90;;;24.10;41.12;101225.00;4935481;29;20501;-60
2023/06/13 02:28:25;;;;;;;2.08;1.98;;;23.70;99.90;;;23.95;41.29;101224.94;4935465;29;20577;-60
2023/06/13 02:30:54;;;;;;;2.30;2.20;;;23.60;99.90;;;23.97;41.36;101229.31;4932145;29;20094;-60
2023/06/13 02:33:23;;;;;;;2.22;2.13;;;23.50;99.90;;;23.91;41.55;101221.53;4934211;29;20138;-60
2023/06/13 02:35:52;;;;;;;2.00;1.90;;;23.50;99.90;;;23.79;42.12;101200.56;4935660;29;20139;-62
2023/06/13 02:38:21;;;;;;;2.15;2.05;;;23.50;99.90;;;23.91;41.84;101232.34;4935673;29;20059;-64
2023/06/13 02:40:49;;;;;;;2.03;1.92;;;23.50;99.90;;;23.89;42.01;101220.75;4935418;29;20390;-62
2023/06/13 02:43:17;;;;;;;2.05;1.95;;;23.40;99.90;;;23.86;41.94;101229.03;4935554;29;20047;-62
2023/06/13 02:45:46;;;;;;;2.03;1.92;;;23.40;99.90;;;23.91;42.20;101229.63;4935281;29;20044;-62
2023/06/13 02:48:15;;;;;;;2.13;2.03;;;23.50;99.90;;;23.82;41.57;101231.97;4934295;29;20047;-62
2023/06/13 02:50:44;;;;;;;2.20;2.10;;;23.40;99.90;;;23.75;41.99;101231.41;4935231;29;20386;-62
2023/06/13 02:53:14;;;;;;;2.30;2.20;;;23.30;99.90;;;23.76;41.92;101235.88;4914799;29;20067;-63
2023/06/13 02:55:46;;;;;;;1.88;1.80;;;23.30;99.90;;;23.65;42.17;101237.38;4934296;29;20138;-62
2023/06/13 02:58:15;;;;;;;2.08;1.98;;;23.20;99.90;;;23.58;42.12;101239.53;4926459;29;20059;-61
2023/06/13 03:00:43;;;;;;;2.35;2.25;;;23.20;99.90;;;23.38;42.44;101233.41;4934164;29;20055;-63
2023/06/13 03:03:16;;;;;;;2.30;2.20;;;23.00;99.90;;;23.37;42.73;101231.66;4934546;29;20138;-62
2023/06/13 03:05:47;;;;;;;2.10;2.00;;;23.00;99.90;;;23.37;42.54;101235.22;4931302;29;20048;-61
2023/06/13 03:08:19;;;;;;;2.50;2.40;;;23.00;99.90;;;23.33;43.00;101241.75;4943819;29;20091;-62
2023/06/13 03:10:50;;;;;;;2.22;2.13;;;22.90;99.90;;;23.20;43.19;101236.06;4934138;29;20055;-64
2023/06/13 03:13:22;;;;;;;2.28;2.17;;;22.80;99.90;;;23.27;43.20;101240.19;4926387;29;20047;-59
2023/06/13 03:15:54;;;;;;;2.38;2.28;;;22.80;99.90;;;23.23;43.16;101244.00;4934006;29;20087;-59
2023/06/13 03:18:24;;;;;;;5.25;4.95;;;22.80;99.90;;;23.13;43.21;101240.00;4923025;29;20063;-61
2023/06/13 03:20:54;;;;;;;2.40;2.30;;;22.70;99.90;;;23.14;44.00;101236.38;4927233;29;20060;-60
2023/06/13 03:23:25;;;;;;;2.28;2.17;;;22.70;99.90;;;23.16;43.65;101233.59;4933949;29;20055;-59
2023/06/13 03:25:54;;;;;;;2.20;2.10;;;22.70;99.90;;;23.24;44.01;101239.47;4926336;29;20052;-59
2023/06/13 03:28:23;;;;;;;2.20;2.10;;;22.80;99.90;;;23.22;43.56;101230.59;4933917;29;20151;-59
2023/06/13 03:30:54;;;;;;;2.30;2.20;;;22.80;99.90;;;23.23;44.12;101235.91;4926221;29;20499;-59
2023/06/13 03:33:23;;;;;;;2.28;2.17;;;22.80;99.90;;;23.18;43.68;101229.00;4933847;29;20075;-59
2023/06/13 03:35:53;;;;;;;2.13;2.03;;;22.70;99.90;;;23.13;43.57;101229.22;4933606;29;20099;-62
2023/06/13 03:38:28;;;;;;;2.55;2.45;;;22.70;99.90;;;23.05;43.64;101226.03;4915621;29;20490;-62
2023/06/13 03:40:57;;;;;;;2.40;2.30;;;22.70;99.90;;;22.98;43.71;101227.28;4933847;29;20055;-62
2023/06/13 03:43:26;;;;;;;2.55;2.45;;;22.60;99.90;;;22.96;43.97;101226.50;4933799;29;20064;-62
2023/06/13 03:45:55;;;;;;;3.65;3.45;;;22.50;99.90;;;22.93;44.12;101228.47;4934973;29;20138;-62
2023/06/13 03:48:23;;;;;;;2.42;2.33;;;22.50;99.90;;;22.95;44.37;101226.56;4938544;29;20040;-61
2023/06/13 03:50:52;;;;;;;2.40;2.30;;;22.50;99.90;;;22.87;44.31;101234.16;4937181;29;20048;-62
2023/06/13 03:53:22;;;;;;;2.63;2.53;;;22.50;99.90;;;22.77;44.78;101225.66;4926062;29;20502;-62
2023/06/13 03:55:52;;;;;;;2.10;2.00;;;22.40;99.90;;;22.69;44.56;101224.25;4933369;29;20540;-61
2023/06/13 03:58:25;;;;;;;2.40;2.30;;;22.30;99.90;;;22.57;44.99;101222.19;4919269;29;20131;-62
2023/06/13 04:00:54;;;;;;;;;;;22.20;99.90;;;22.61;45.33;101218.41;4937492;29;20504;-62
2023/06/13 04:03:22;;;;;;;2.33;2.22;;;22.20;99.90;;;22.60;45.04;101224.72;4938277;29;19966;-62
2023/06/13 04:05:51;;;;;;;2.45;2.35;;;22.20;99.90;;;22.55;45.05;101211.41;4936913;29;20142;-62
2023/06/13 04:08:20;;;;;;;2.70;2.50;;;22.20;99.90;;;22.58;45.09;101222.09;4938157;29;20055;-62
2023/06/13 04:10:48;;;;;;;2.53;2.42;;;22.20;99.90;;;22.61;45.34;101238.13;4936819;29;20051;-62
2023/06/13 04:13:18;;;;;;;2.45;2.35;;;22.20;99.90;;;22.66;45.41;101232.53;4937967;29;20040;-62
2023/06/13 04:15:47;;;;;;;2.40;2.30;;;22.20;99.90;;;22.59;45.38;101228.38;4934487;29;20110;-62
2023/06/13 04:18:17;;;;;;;2.08;1.98;;;22.20;99.90;;;22.55;45.27;101241.06;4938305;29;20040;-62
2023/06/13 04:20:46;;;;;;;;;;;22.10;99.90;;;22.57;45.65;101232.97;4938360;29;20064;-62
2023/06/13 04:23:16;;;;;;;2.22;2.13;;;22.20;99.90;;;22.63;45.69;101238.06;4936907;29;20332;-62
2023/06/13 04:25:44;;;;;;;2.25;2.15;;;22.20;99.90;;;22.61;45.35;101234.56;4944548;29;20063;-62
2023/06/13 04:28:14;;;;;;;2.10;2.00;;;22.20;99.90;;;22.67;45.91;101239.66;4937509;29;20148;-62
2023/06/13 04:30:46;;;;;;;2.65;2.47;;;22.20;99.90;;;22.70;45.47;101237.69;4928846;29;20047;-59
2023/06/13 04:33:17;;;;;;;2.38;2.28;;;22.30;99.90;;;22.70;45.75;101239.50;4933955;29;20051;-60
2023/06/13 04:35:46;;;;;;;;;;;22.30;99.90;;;22.71;45.72;101244.84;4937847;29;20095;-59
2023/06/13 04:38:18;;;;;;;2.50;2.40;;;22.30;99.90;;;22.71;45.46;101243.94;4937339;29;19927;-62
2023/06/13 04:40:46;;;;;;;2.40;2.30;;;22.30;99.90;;;22.61;45.73;101240.81;4937329;29;20044;-60
2023/06/13 04:43:15;;;;;;;3.20;3.00;;;22.20;99.90;;;22.55;45.25;101246.47;4937523;29;20051;-64
2023/06/13 04:45:46;;;;;;;2.60;2.50;;;22.20;99.90;;;22.45;45.41;101247.88;4936134;29;20059;-62
2023/06/13 04:48:15;;;;;;;2.45;2.35;;;22.10;99.90;;;22.53;45.66;101248.38;4937232;29;20048;-62
2023/06/13 04:50:44;;;;;;;2.65;2.55;;;22.10;99.90;;;22.54;45.39;101254.66;4933487;29;20413;-62
2023/06/13 04:53:12;;;;;;;2.67;2.58;;;22.10;99.90;;;22.41;45.38;101224.72;4935896;29;20082;-59
2023/06/13 04:55:41;;;;;;;3.17;3.08;;;22.10;99.90;;;22.49;45.77;101262.09;4937059;29;20417;-60
2023/06/13 04:58:09;;;;;;;2.78;2.67;;;22.10;99.90;;;22.42;45.51;101261.50;4936056;29;20485;-59
2023/06/13 05:00:38;;;;;;;2.40;2.30;;;22.10;99.90;;;22.42;45.75;101262.38;4937200;29;20071;-59
2023/06/13 05:03:08;;;;;;;2.30;2.20;;;22.10;99.90;;;22.40;45.48;101261.56;4936923;29;20048;-63
2023/06/13 05:05:36;;;;;;;;;;;22.00;99.90;;;22.42;45.69;101258.78;4937614;29;20056;-62
2023/06/13 05:08:05;;;;;;;2.70;2.60;;;22.00;99.90;;;22.43;45.87;101266.81;4936847;29;19953;-62
2023/06/13 05:10:33;;;;;;;4.03;3.72;;;22.00;99.90;;;22.45;45.52;101270.31;4936728;29;20053;-62
2023/06/13 05:13:02;;;;;;;2.58;2.47;;;22.10;99.90;;;22.51;46.19;101271.88;4935662;29;20052;-62
2023/06/13 05:15:30;;;;;;;3.05;2.95;;;22.10;99.90;;;22.63;45.98;101265.03;4933044;29;20123;-62
2023/06/13 05:17:59;;;;;;;2.35;2.25;;;22.20;99.90;;;22.66;45.64;101270.28;4936574;29;20047;-62
2023/06/13 05:20:30;;;;;;;2.92;2.83;;;22.30;99.90;;;22.62;45.75;101298.34;4936329;29;20063;-62
2023/06/13 05:23:00;;;;;;;2.55;2.45;;;22.20;99.90;;;22.47;46.46;101278.34;4936601;29;20422;-62
2023/06/13 05:25:29;;;;;;;2.53;2.42;;;22.00;99.90;;;22.53;46.56;101285.28;4936984;29;20049;-62
2023/06/13 05:27:58;;;;;;;4.53;3.17;;;22.10;99.90;;;22.44;46.10;101259.59;4935393;29;20623;-61
2023/06/13 05:30:26;;;;;;;2.15;2.05;;;22.20;99.90;;;22.52;46.74;101279.00;4936867;29;20051;-62
2023/06/13 05:32:55;;;;;;;2.70;2.60;;;22.10;99.90;;;22.64;46.63;101286.53;4936341;29;20078;-62
2023/06/13 05:35:23;;;;;;;2.40;2.30;;;22.20;99.90;;;22.74;46.32;101284.28;4932745;29;20047;-64
2023/06/13 05:37:53;;;;;;;2.47;2.38;;;22.30;99.90;;;22.82;46.31;101277.56;4933072;29;20048;-61
2023/06/13 05:40:22;;;;;;;2.50;2.40;;;22.40;99.90;;;22.91;46.02;101287.03;4936772;29;20243;-62
2023/06/13 05:42:50;;;;;;;2.70;2.55;;;22.50;99.90;;;22.99;45.86;101284.84;4936047;29;20048;-62
2023/06/13 05:45:18;;;;;;;2.30;2.20;;;22.60;99.90;;;23.07;46.14;101286.19;4936344;29;20134;-62
2023/06/13 05:47:47;;;;;;;2.63;2.53;;;22.60;99.90;;;23.08;45.89;101293.38;4936122;29;20477;-62
2023/06/13 05:50:16;;;;;;;2.55;2.45;;;22.70;99.90;;;22.66;45.89;101211.81;4935832;29;20047;-62
2023/06/13 05:52:45;;;;;;;3.10;2.90;;;22.80;99.90;;;23.21;45.58;101308.00;4935833;29;20486;-62
2023/06/13 05:55:14;;;;;;;3.20;3.10;;;22.80;99.90;;;23.28;45.66;101301.38;4935759;29;20520;-62
2023/06/13 05:57:46;;;;;;;2.42;2.33;;;22.90;99.90;;;23.35;45.34;101310.03;4932239;29;20075;-63
2023/06/13 06:00:17;;;;;;;2.40;2.30;;;22.90;99.90;;;23.36;45.37;101303.72;4935700;29;20048;-62
2023/06/13 06:02:48;;;;;;;2.90;2.75;;;23.00;99.90;;;23.35;45.43;101307.34;4935887;29;20082;-63
2023/06/13 06:05:19;;;;;;;2.10;2.00;;;23.00;99.90;;;23.36;45.86;101310.94;4936059;29;20465;-62
2023/06/13 06:07:47;;;;;;;2.20;2.10;;;23.00;99.90;;;23.57;45.60;101308.03;4935848;29;20052;-64
2023/06/13 06:10:17;;;;;;;2.70;2.60;;;23.10;99.90;;;23.72;45.25;101315.34;4935623;29;20044;-62
2023/06/13 06:12:46;;;;;;;2.30;2.20;;;23.30;99.90;;;23.69;45.11;101315.47;4935663;29;20043;-61
2023/06/13 06:15:14;;;;;;;2.20;2.10;;;23.30;99.90;;;23.75;45.09;101301.66;4931822;29;20046;-60
2023/06/13 06:17:42;;;;;;;2.30;2.20;;;23.30;99.90;;;23.61;45.08;101285.31;4935564;29;20055;-62
2023/06/13 06:20:11;;;;;;;2.47;2.38;;;23.30;99.90;;;23.46;45.15;101307.66;4935481;29;20123;-62
2023/06/13 06:22:40;;;;;;;2.40;2.30;;;23.20;99.90;;;23.28;46.89;101319.38;4935587;29;20051;-62
2023/06/13 06:25:12;;;;;;;2.17;2.08;;;22.80;99.90;;;23.64;46.78;101316.66;4935288;29;20052;-61
2023/06/13 06:27:45;;;;;;;2.08;1.98;;;23.10;99.90;;;23.78;45.10;101309.63;4934483;29;20051;-62
2023/06/13 06:30:15;;;;;;;2.70;2.60;;;23.30;99.90;;;23.92;45.46;101317.88;4935370;29;20405;-62
2023/06/13 06:32:44;;;;;;;7.55;3.47;;;23.40;99.90;;;24.03;44.48;101320.03;4931888;29;20413;-60
2023/06/13 06:35:13;;;;;;;2.30;2.20;;;23.60;99.90;;;24.11;44.53;101313.28;4935100;29;20517;-60
2023/06/13 06:37:43;;;;;;;2.35;2.25;;;23.70;99.90;;;24.26;44.22;101325.09;4926676;29;20402;-63
2023/06/13 06:40:12;;;;;;;2.90;2.70;;;23.80;99.90;;;24.06;45.31;101326.16;4935548;29;20047;-62
2023/06/13 06:42:41;;;;;;;2.38;2.28;;;23.70;99.90;;;23.95;47.37;101333.06;4935209;29;20054;-62
2023/06/13 06:45:13;;;;;;;2.45;2.35;;;23.50;99.90;;;23.99;46.65;101316.59;4934230;29;20143;-62
2023/06/13 06:47:42;;;;;;;5.20;3.20;;;23.60;99.90;;;23.96;45.30;101329.41;4935107;29;20135;-62
2023/06/13 06:50:11;;;;;;;2.38;2.28;;;23.50;99.90;;;23.18;46.46;101318.06;4927296;29;20131;-62
2023/06/13 06:52:40;;;;;;;2.35;2.25;;;22.80;99.90;;;23.17;47.20;101317.19;4931828;29;20055;-62
2023/06/13 06:55:08;;;;;;;2.53;2.42;;;22.60;99.90;;;23.20;46.78;101311.66;4935157;29;20106;-61
2023/06/13 06:57:37;;;;;;;5.10;3.40;;;22.70;99.90;;;23.03;46.44;101316.13;4935095;29;20508;-62
2023/06/13 07:00:10;;;;;;;3.60;3.25;;;22.60;99.90;;;22.92;47.95;101315.75;4935006;29;20047;-61
2023/06/13 07:02:40;;;;;;;21.23;3.40;;;22.40;99.90;;;23.22;45.17;101314.28;4934923;29;20146;-61
2023/06/13 07:05:09;;;;;;;3.47;3.28;;;22.60;99.90;;;23.05;46.21;101306.13;4935282;29;20078;-61
2023/06/13 07:07:38;;;;;;;2.88;2.67;;;22.60;99.90;;;23.23;45.69;101318.72;4934925;29;20553;-61
2023/06/13 07:10:08;;;;;;;2.33;2.22;;;22.70;99.90;;;23.46;44.75;101312.22;4931370;29;20098;-61
2023/06/13 07:12:36;;;;;;;3.08;2.97;;;22.90;99.90;;;23.81;43.41;101305.91;4934048;29;20437;-61
2023/06/13 07:15:06;;;;;;;7.13;3.78;;;23.30;99.90;;;23.41;44.25;101308.84;4934938;29;20047;-61
2023/06/13 07:17:34;;;;;;;4.05;3.72;;;23.10;99.90;;;23.45;45.21;101354.56;4935157;29;20051;-58
2023/06/13 07:20:07;;;;;;;3.47;3.28;;;23.10;99.90;;;23.64;43.81;101317.56;4935024;29;20048;-59
2023/06/13 07:22:36;;;;;;;3.30;3.10;;;23.10;99.90;;;23.50;43.99;101338.13;4938833;29;20048;-63
2023/06/13 07:25:06;;;;;;;3.08;2.95;;;23.00;99.90;;;23.13;44.30;101239.16;4938620;29;20058;-68
2023/06/13 07:27:35;;;;;;;2.85;2.65;;;23.10;99.90;;;24.00;43.36;101339.09;4938658;29;20059;-69
2023/06/13 07:30:04;;;;;;;2.50;2.40;;;23.40;99.90;;;24.28;43.03;101334.00;4938584;29;20130;-70
2023/06/13 07:32:32;;;;;;;2.45;2.35;;;23.70;99.90;;;24.50;42.64;101331.91;4938733;29;20111;-70
2023/06/13 07:35:02;;;;;;;2.70;2.60;;;24.10;99.90;;;24.68;41.97;101330.03;4938417;29;20044;-70
2023/06/13 07:37:36;;;;;;;3.05;2.85;;;24.30;99.90;;;24.64;42.67;101336.56;4938632;29;20058;-70
2023/06/13 07:40:07;;;;;;;2.20;2.10;;;24.20;99.90;;;24.73;43.76;101327.97;4938501;29;20048;-71
2023/06/13 07:42:36;;;;;;;1.90;1.80;;;24.30;99.90;;;25.08;41.85;101337.69;4938461;29;20043;-71
2023/06/13 07:45:06;;;;;;;3.88;3.58;;;24.60;99.90;;;25.12;40.98;101341.97;4918447;29;20052;-68
2023/06/13 07:47:35;;;;;;;3.45;3.15;;;24.70;99.90;;;24.66;41.19;101338.19;4938423;29;20139;-69
2023/06/13 07:50:05;;;;;;;2.58;2.47;;;24.30;99.90;;;24.72;43.32;101337.91;4938492;29;20126;-68
2023/06/13 07:52:35;;;;;;;2.53;2.42;;;24.30;99.90;;;24.74;41.86;101310.75;4938149;29;20505;-68
2023/06/13 07:55:04;;;;;;;3.45;3.25;;;24.40;99.90;;;24.83;41.39;101340.03;4937987;29;20048;-68
2023/06/13 07:57:32;;;;;;;3.50;3.30;;;24.30;99.90;;;24.96;41.95;101330.25;4938162;29;20062;-61
2023/06/13 08:00:21;;;;;;;4.43;3.88;;;24.40;99.90;;;24.69;40.98;101334.47;4936194;29;20051;-61
2023/06/13 08:02:50;;;;;;;3.17;2.88;;;24.30;99.90;;;24.70;41.29;101325.41;4937959;29;20151;-62
2023/06/13 08:05:19;;;;;;;2.88;2.78;;;24.20;99.90;;;24.87;41.68;101320.78;4938226;29;20059;-61
2023/06/13 08:07:50;;;;;;;3.95;3.65;;;24.40;99.90;;;24.69;41.94;101323.63;4936850;29;20508;-61
2023/06/13 08:10:19;;;;;;;2.67;2.58;;;24.20;99.90;;;24.75;40.90;101331.47;4934489;29;20565;-62
2023/06/13 08:12:47;;;;;;;2.80;2.67;;;24.20;99.90;;;25.16;39.82;101343.53;4937786;29;20107;-59
2023/06/13 08:15:16;;;;;;;2.72;2.53;;;24.60;99.90;;;25.07;39.72;101319.66;4936597;29;20058;-59
2023/06/13 08:17:44;;;;;;;9.80;4.05;;;24.50;99.90;;;24.86;39.20;101324.47;4937773;29;20078;-59
2023/06/13 08:20:13;;;;;;;4.20;3.15;;;24.50;99.90;;;25.14;41.11;101331.94;4936356;29;20438;-59
2023/06/13 08:22:42;;;;;;;2.70;2.53;;;24.60;99.90;;;25.36;40.50;101318.03;4937949;29;20548;-60
2023/06/13 08:25:12;;;;;;;2.90;2.70;;;24.80;99.90;;;25.23;40.13;101333.22;4937629;29;20083;-59
2023/06/13 08:27:41;;;;;;;4.25;3.75;;;24.80;99.90;;;25.26;37.62;101338.47;4937758;29;20090;-59
2023/06/13 08:30:11;;;;;;;5.65;4.00;;;24.80;99.90;;;25.22;38.36;101336.91;4937486;29;20063;-58
2023/06/13 08:32:41;;;;;;;2.67;2.50;;;24.80;99.90;;;25.45;38.64;101334.63;4933662;29;20051;-59
2023/06/13 08:35:14;;;;;;;3.35;3.05;;;24.90;99.90;;;25.64;39.28;101297.34;4936376;29;20062;-59
2023/06/13 08:37:43;;;;;;;2.40;2.30;;;25.20;99.90;;;25.87;38.61;101337.50;4944614;29;20473;-59
2023/06/13 08:40:15;;;;;;;2.72;2.55;;;25.40;99.90;;;26.14;35.80;101307.88;4937811;29;20117;-60
2023/06/13 08:42:45;;;;;;;2.50;2.40;;;25.60;92.60;;;25.65;37.40;101315.34;4937330;29;20059;-59
2023/06/13 08:45:15;;;;;;;2.47;2.28;;;25.20;96.40;;;26.08;35.65;101321.78;4937344;29;20515;-59
2023/06/13 08:47:46;;;;;;;3.00;2.58;;;25.50;91.40;;;26.14;34.77;101318.72;4933906;29;20508;-62
2023/06/13 08:50:24;;;;;;;5.63;2.65;;;25.70;85.40;;;26.11;35.27;101324.34;4935908;29;20048;-61
2023/06/13 08:52:55;;;;;;;2.30;2.20;;;25.70;86.80;;;25.93;36.52;101263.94;4937124;29;20043;-63
2023/06/13 08:55:26;;;;;;;2.50;2.40;;;25.70;92.90;;;26.09;36.85;101309.13;4937016;29;20056;-62
2023/06/13 08:57:59;;;;;;;2.88;2.67;;;25.70;93.20;;;26.43;34.90;101297.88;4933723;29;20040;-61
2023/06/13 09:00:28;;;;;;;11.88;3.53;;;26.00;86.70;;;26.41;35.06;101299.84;4936780;29;20409;-61
2023/06/13 09:02:58;;;;;;;4.80;3.50;;;26.00;86.10;;;26.09;36.37;101306.41;4937206;29;20040;-61
2023/06/13 09:05:26;;;;;;;12.55;4.45;;;25.70;90.80;;;25.66;37.89;101308.97;4935737;29;20146;-61
2023/06/13 09:07:58;;;;;;;2.70;2.60;;;25.20;95.50;;;25.60;36.81;101284.94;4936718;29;20585;-62
2023/06/13 09:10:49;;;;;;;2.90;2.60;;;25.10;93.40;;;25.57;36.12;101247.19;4935242;29;20056;-61
2023/06/13 09:13:18;;;;;;;5.30;4.05;;;25.30;92.00;;;25.86;35.45;101303.22;4936729;29;20051;-62
2023/06/13 09:15:47;;;;;;;2.45;2.35;;;25.40;89.80;;;26.18;37.14;101293.16;4936817;29;20047;-63
2023/06/13 09:18:17;;;;;;;4.70;3.67;;;25.60;94.50;;;25.85;36.06;101296.06;4936589;29;20489;-62
2023/06/13 09:20:46;;;;;;;2.57;2.47;;;25.40;90.30;;;26.07;36.93;101294.78;4933242;29;20091;-62
2023/06/13 09:23:16;;;;;;;2.75;2.65;;;25.50;93.20;;;26.26;37.23;101289.94;4936538;29;20326;-61
2023/06/13 09:25:48;;;;;;;3.30;3.03;;;25.70;94.50;;;26.29;36.57;101297.88;4937026;29;20071;-59
2023/06/13 09:28:31;;;;;;;4.28;3.83;;;25.70;91.40;;;26.35;34.04;101294.78;4936484;29;20039;-58
2023/06/13 09:31:00;;;;;;;2.38;2.17;;;25.90;80.40;;;26.26;34.34;101306.22;4933374;29;20052;-59
2023/06/13 09:33:29;;;;;;;2.57;2.47;;;25.70;79.90;;;26.53;33.42;101282.78;4936637;29;20054;-59
2023/06/13 09:35:57;;;;;;;2.47;2.30;;;26.00;76.30;;;26.67;33.25;101301.78;4936228;29;20528;-61
2023/06/13 09:38:34;;;;;;;9.15;3.88;;;26.20;74.20;;;26.65;33.08;101309.16;4936617;29;20135;-61
2023/06/13 09:41:05;;;;;;;2.58;2.42;;;26.30;70.70;;;26.39;33.35;101301.75;4936482;29;20126;-61
2023/06/13 09:43:34;;;;;;;2.00;1.90;;;26.00;71.80;;;26.77;32.67;101292.94;4932382;29;20052;-62
2023/06/13 09:46:02;;;;;;;1.92;1.88;;;26.20;69.90;;;27.03;31.95;101291.25;4936047;29;20052;-62
2023/06/13 09:48:31;;;;;;;2.20;2.10;;;26.50;67.60;;;27.23;32.23;101281.78;4935986;29;20082;-59
2023/06/13 09:51:06;;;;;;;3.22;2.90;;;26.70;68.00;;;27.40;32.30;101287.88;4936102;29;20457;-61
2023/06/13 09:53:36;;;;;;;3.95;2.85;;;26.90;68.20;;;27.14;32.03;101269.69;4936006;29;20127;-61
2023/06/13 09:56:09;;;;;;;3.38;2.47;;;26.80;66.50;;;27.46;32.08;101297.47;4935847;29;20048;-61
2023/06/13 09:58:39;;;;;;;4.20;3.38;;;27.00;66.50;;;26.96;33.35;101286.34;4932457;29;20107;-62
2023/06/13 10:01:12;;;;;;;2.08;1.98;;;26.60;69.70;;;27.26;32.31;101290.59;4934763;29;20044;-63
2023/06/13 10:03:41;;;;;;;2.33;2.20;;;26.70;66.60;;;27.25;33.50;101282.56;4935796;29;20494;-61
2023/06/13 10:06:09;;;;;;;2.58;2.38;;;26.70;70.90;;;27.12;32.26;101296.06;4936240;29;20494;-62
2023/06/13 10:08:38;;;;;;;4.07;3.67;;;26.70;67.00;;;26.94;32.64;101294.59;4934656;29;20055;-59
2023/06/13 10:11:12;;;;;;;3.10;2.80;;;26.50;66.50;;;26.74;33.32;101281.44;4934536;29;20110;-59
2023/06/13 10:13:46;;;;;;;3.80;2.83;;;26.20;68.80;;;26.32;33.39;101257.00;4932014;29;20051;-60
2023/06/13 10:16:18;;;;;;;3.08;2.88;;;25.90;68.40;;;26.76;32.40;101277.66;4935554;29;20052;-60
2023/06/13 10:18:52;;;;;;;1.98;1.88;;;26.20;66.40;;;26.91;32.63;101281.19;4935567;29;20433;-60
2023/06/13 10:21:22;;;;;;;1.98;1.88;;;26.40;68.00;;;27.05;32.36;101264.00;4935803;29;20379;-62
2023/06/13 10:23:51;;;;;;;3.92;3.55;;;26.60;66.40;;;27.02;32.11;101267.81;4935496;29;20107;-62
2023/06/13 10:26:30;;;;;;;2.60;2.47;;;26.70;65.90;;;26.89;32.67;101282.28;4932072;29;20498;-62